Wells, Michigan
Current Conditions -  °F | °C
As of 9:35 AM on Thursday 23 Oct 2014 (Local Time) from KESC Reporting Station
Overcast Overcast  
Wind Chill: 30°   Ceiling: 200
Heat Index: 30°   Visibility: 1.5mi
Dew Point: 28°   Wind: 0mph
Humidity: 93%   Direction: NA
Pressure: 30.15"   Gusts: NA
Location:  45.78°N, 87.08°W
Report Text: KESC 231335Z AUTO 00000KT 1 1/2SM OVC002 M01/M02 A3015 RMK AO1
Loading
Personal Weather Stations






























Interactive Weather Map
Tropical Storm Tracking
New forecast layout! Learn more

10-Day Weather Forecast

Advertisements
Track Severe Weather on mobile